Airport View

Enter AWOS ICAO identifier for current METAR.

ex. KFNL

21 Sep 2019 23:31

Frequency: 118.325

Phone: 907-293-2002

Other Area AWOS: PAMC - PATL - PAPT - PAMH

PAMC 211739Z 2118/2218 25003KT P6SM SKC FM220900 15003KT P6SM OVC100